Time;durP1;ratioP1;P1;durP2;ratioP2;P2;SDS_P1;SDS_P2;PMS_P1;PMS_P2;Temp;Humidity;BMP_temperature;BMP_pressure;BME280_temperature;BME280_humidity;BME280_pressure;Samples;Min_cycle;Max_cycle;Signal;HPM_P1;HPM_P2
2022/10/28 00:00:17;;;;;;;9.73;6.47;;;;;;;13.25;100.00;101686.69;1039133;28;20049;-82
2022/10/28 00:00:49;;;;;;;19.48;6.20;;;;;;;13.22;100.00;101682.56;1039356;28;20049;-82
2022/10/28 00:01:22;;;;;;;8.88;5.25;;;;;;;13.25;100.00;101687.50;1039774;28;20049;-82
2022/10/28 00:01:55;;;;;;;11.07;5.78;;;;;;;13.22;100.00;101687.94;1037782;28;20124;-82
2022/10/28 00:02:27;;;;;;;11.95;5.53;;;;;;;13.22;100.00;101689.78;1039038;28;20712;-82
2022/10/28 00:03:00;;;;;;;6.45;5.65;;;;;;;13.21;100.00;101691.63;1039466;28;20049;-82
2022/10/28 00:03:32;;;;;;;9.52;6.13;;;;;;;13.21;100.00;101694.31;1042080;28;20037;-82
2022/10/28 00:04:04;;;;;;;13.15;5.35;;;;;;;13.21;100.00;101701.50;1043194;28;20052;-82
2022/10/28 00:04:35;;;;;;;10.57;6.22;;;;;;;13.19;100.00;101691.03;1042542;28;20048;-82
2022/10/28 00:05:07;;;;;;;8.20;5.15;;;;;;;13.20;100.00;101689.16;1043408;28;20124;-82
2022/10/28 00:05:39;;;;;;;9.98;6.47;;;;;;;13.22;100.00;101687.09;1039258;28;20036;-82
2022/10/28 00:06:14;;;;;;;11.90;5.65;;;;;;;13.24;100.00;101691.22;1039618;28;20042;-82
2022/10/28 00:06:45;;;;;;;17.70;7.22;;;;;;;13.26;100.00;101688.31;1041506;28;20298;-82
2022/10/28 00:07:17;;;;;;;12.15;6.18;;;;;;;13.26;100.00;101681.09;1036209;28;20038;-82
2022/10/28 00:07:49;;;;;;;8.73;5.43;;;;;;;13.27;100.00;101685.44;1036723;28;20316;-82
2022/10/28 00:08:20;;;;;;;8.57;5.43;;;;;;;13.27;100.00;101684.59;1038858;28;20048;-82
2022/10/28 00:08:53;;;;;;;7.55;5.40;;;;;;;13.25;100.00;101676.78;1041930;28;20045;-82
2022/10/28 00:09:24;;;;;;;9.02;6.18;;;;;;;13.26;100.00;101681.09;1044889;28;20453;-82
2022/10/28 00:09:56;;;;;;;18.45;7.05;;;;;;;13.27;100.00;101674.72;1040968;28;20237;-82
2022/10/28 00:10:28;;;;;;;12.50;5.55;;;;;;;13.27;100.00;101677.41;1039404;28;20107;-82
2022/10/28 00:11:05;;;;;;;18.80;5.53;;;;;;;13.28;100.00;101676.38;1043751;28;20122;-82
2022/10/28 00:11:37;;;;;;;10.80;6.03;;;;;;;13.28;100.00;101676.38;1039320;28;20045;-82
2022/10/28 00:12:08;;;;;;;12.55;5.38;;;;;;;13.25;100.00;101674.13;1031181;28;20662;-83
2022/10/28 00:12:40;;;;;;;15.88;7.45;;;;;;;13.25;100.00;101676.78;1030930;28;20097;-82
2022/10/28 00:13:11;;;;;;;16.75;7.22;;;;;;;13.24;100.00;101674.34;1034270;28;20684;-82
2022/10/28 00:13:44;;;;;;;10.90;7.13;;;;;;;13.24;100.00;101674.34;1039778;28;20068;-82
2022/10/28 00:14:15;;;;;;;13.88;5.90;;;;;;;13.25;100.00;101675.97;1039576;28;20292;-82
2022/10/28 00:14:47;;;;;;;15.18;5.90;;;;;;;13.22;100.00;101677.22;1039087;28;20041;-82
2022/10/28 00:15:19;;;;;;;9.35;5.72;;;;;;;13.20;100.00;101678.47;1037103;28;20802;-82
2022/10/28 00:15:50;;;;;;;11.63;6.18;;;;;;;13.19;100.00;101672.31;1039156;28;20045;-82
2022/10/28 00:16:24;;;;;;;13.23;7.22;;;;;;;13.20;100.00;101673.94;1043900;28;20291;-82
2022/10/28 00:16:56;;;;;;;6.55;5.10;;;;;;;13.17;100.00;101676.19;1039334;28;20037;-82
2022/10/28 00:17:30;;;;;;;11.18;6.40;;;;;;;13.17;100.00;101673.53;1034776;28;20304;-82
2022/10/28 00:18:01;;;;;;;12.50;6.60;;;;;;;13.17;100.00;101674.38;1039054;28;20325;-82
2022/10/28 00:18:33;;;;;;;11.68;5.43;;;;;;;13.18;100.00;101669.84;1040012;28;20475;-82
2022/10/28 00:19:08;;;;;;;14.13;5.72;;;;;;;13.16;100.00;101672.69;1033881;28;20942;-82
2022/10/28 00:19:40;;;;;;;10.02;6.47;;;;;;;13.16;100.00;101677.22;1036160;28;20293;-82
2022/10/28 00:20:11;;;;;;;16.13;6.82;;;;;;;13.15;100.00;101670.25;1031777;28;20082;-82
2022/10/28 00:20:43;;;;;;;12.23;6.75;;;;;;;13.07;100.00;101668.59;1036872;28;20521;-82
2022/10/28 00:21:18;;;;;;;11.32;6.18;;;;;;;13.05;100.00;101676.03;1040220;28;20041;-82
2022/10/28 00:21:49;;;;;;;14.73;5.95;;;;;;;13.06;100.00;101676.84;1044855;28;20537;-82
2022/10/28 00:22:21;;;;;;;10.13;5.82;;;;;;;13.04;100.00;101673.56;1044905;28;20061;-82
2022/10/28 00:22:53;;;;;;;15.52;6.95;;;;;;;13.02;100.00;101671.09;1040074;28;20442;-82
2022/10/28 00:23:24;;;;;;;9.93;5.65;;;;;;;13.02;100.00;101676.44;1036970;28;20045;-82
2022/10/28 00:23:56;;;;;;;10.45;6.15;;;;;;;13.02;100.00;101671.09;1040960;28;20119;-82
2022/10/28 00:24:30;;;;;;;10.73;6.95;;;;;;;13.02;100.00;101681.78;1036988;28;20038;-82
2022/10/28 00:25:02;;;;;;;9.57;6.93;;;;;;;13.03;100.00;101682.63;1039987;28;20038;-82
2022/10/28 00:25:34;;;;;;;9.15;5.50;;;;;;;13.02;100.00;101680.97;1037314;28;20339;-82
2022/10/28 00:26:11;;;;;;;10.43;5.80;;;;;;;13.01;100.00;101685.50;1040650;28;20253;-82
2022/10/28 00:26:43;;;;;;;9.75;5.88;;;;;;;12.98;100.00;101683.25;1041642;28;20040;-82
2022/10/28 00:27:14;;;;;;;12.05;6.18;;;;;;;12.96;100.00;101677.31;1040675;28;20140;-82
2022/10/28 00:27:46;;;;;;;9.35;5.35;;;;;;;12.92;100.00;101681.44;1047881;28;20136;-82
2022/10/28 00:28:20;;;;;;;12.48;5.45;;;;;;;12.92;100.00;101681.44;1045292;28;20036;-82
2022/10/28 00:28:54;;;;;;;14.45;6.88;;;;;;;12.97;100.00;101686.97;1046106;28;20041;-83
2022/10/28 00:29:25;;;;;;;10.82;6.32;;;;;;;12.94;100.00;101680.19;1041642;28;20037;-82
2022/10/28 00:29:57;;;;;;;11.50;6.78;;;;;;;12.95;100.00;101678.34;1039251;28;20041;-82
2022/10/28 00:30:28;;;;;;;11.80;7.43;;;;;;;12.94;100.00;101685.53;1038370;28;20038;-82
2022/10/28 00:31:04;;;;;;;9.05;5.68;;;;;;;12.94;100.00;101674.84;1030158;28;20302;-82
2022/10/28 00:31:36;;;;;;;13.55;7.80;;;;;;;12.92;100.00;101676.09;1032192;28;20038;-82
2022/10/28 00:32:08;;;;;;;8.75;5.75;;;;;;;12.91;100.00;101674.44;1032743;28;20308;-82
2022/10/28 00:32:39;;;;;;;7.20;6.18;;;;;;;12.91;100.00;101675.25;1030910;28;20105;-82
2022/10/28 00:33:11;;;;;;;16.23;6.03;;;;;;;12.89;100.00;101679.19;1036445;28;20820;-82
2022/10/28 00:33:43;;;;;;;10.00;5.63;;;;;;;12.88;100.00;101672.19;1039097;28;20041;-83
2022/10/28 00:34:17;;;;;;;10.60;6.40;;;;;;;12.88;100.00;101674.88;1036614;28;20330;-82
2022/10/28 00:34:48;;;;;;;12.38;5.60;;;;;;;12.87;100.00;101675.88;1040782;28;20284;-82
2022/10/28 00:35:20;;;;;;;12.05;5.93;;;;;;;12.85;100.00;101675.25;1035185;28;20868;-82
2022/10/28 00:35:52;;;;;;;10.93;5.75;;;;;;;12.83;100.00;101675.47;1035831;28;20297;-82
2022/10/28 00:36:28;;;;;;;8.88;5.60;;;;;;;12.86;100.00;101676.91;1038830;28;20045;-82
2022/10/28 00:37:00;;;;;;;10.73;5.28;;;;;;;12.87;100.00;101668.66;1039720;28;20343;-82
2022/10/28 00:37:32;;;;;;;4.88;4.35;;;;;;;12.90;100.00;101672.81;1045322;28;20299;-82
2022/10/28 00:38:03;;;;;;;12.70;6.15;;;;;;;12.90;100.00;101665.59;1047811;28;20294;-82
2022/10/28 00:38:35;;;;;;;10.63;5.72;;;;;;;12.94;100.00;101663.31;1048271;28;20090;-82
2022/10/28 00:39:10;;;;;;;20.40;7.80;;;;;;;12.93;100.00;101672.38;1041527;28;20300;-82
2022/10/28 00:39:42;;;;;;;14.45;6.72;;;;;;;12.92;100.00;101658.19;1040971;28;20312;-82
2022/10/28 00:40:13;;;;;;;10.82;6.75;;;;;;;12.90;100.00;101670.94;1040816;28;20496;-82
2022/10/28 00:40:45;;;;;;;7.35;5.15;;;;;;;12.89;100.00;101666.63;1035050;28;20719;-82
2022/10/28 00:41:20;;;;;;;12.07;6.00;;;;;;;12.86;100.00;101671.56;1036339;28;20371;-82
2022/10/28 00:41:55;;;;;;;12.13;6.35;;;;;;;12.83;100.00;101671.97;1043238;28;20307;-82
2022/10/28 00:42:27;;;;;;;10.60;5.75;;;;;;;12.80;100.00;101662.53;1036814;28;20300;-82
2022/10/28 00:42:58;;;;;;;11.98;5.90;;;;;;;12.74;100.00;101673.25;1035778;28;20301;-82
2022/10/28 00:43:40;;;;;;;11.35;6.22;;;;;;;12.71;100.00;101673.69;1028597;28;20313;-82
2022/10/28 00:44:50;;;;;;;12.57;5.55;;;;;;;12.68;100.00;101670.38;1031270;28;20290;-82
2022/10/28 00:45:21;;;;;;;12.82;5.63;;;;;;;12.68;100.00;101670.38;1039704;28;20295;-82
2022/10/28 00:45:53;;;;;;;6.70;5.75;;;;;;;12.69;100.00;101665.88;1040839;28;20307;-88
2022/10/28 00:46:29;;;;;;;12.30;5.72;;;;;;;12.70;100.00;101667.50;1046600;28;20654;-88
2022/10/28 00:47:00;;;;;;;23.52;7.03;;;;;;;12.73;100.00;101666.25;1043768;28;20792;-87
2022/10/28 00:47:40;;;;;;;8.90;5.68;;;;;;;12.73;100.00;101661.75;1043388;28;20306;-88
2022/10/28 00:48:11;;;;;;;10.70;5.97;;;;;;;12.75;100.00;101666.88;1036852;28;20297;-88
2022/10/28 00:48:44;;;;;;;8.25;5.60;;;;;;;12.77;100.00;101670.16;1042186;28;20445;-88
2022/10/28 00:49:31;;;;;;;11.40;6.35;;;;;;;12.76;100.00;101665.84;1039320;28;20296;-87
2022/10/28 00:50:11;;;;;;;12.77;7.75;;;;;;;12.78;100.00;101663.78;1039457;28;20375;-87
2022/10/28 00:50:50;;;;;;;16.65;7.07;;;;;;;12.79;100.00;101662.75;1043086;28;20329;-86
2022/10/28 00:51:23;;;;;;;10.75;6.38;;;;;;;12.80;100.00;101667.06;1045708;28;20037;-88
2022/10/28 00:52:07;;;;;;;9.45;6.55;;;;;;;12.80;100.00;101667.88;1047016;28;20356;-87
2022/10/28 00:52:38;;;;;;;11.45;6.47;;;;;;;12.81;100.00;101664.16;1044070;28;20375;-88
2022/10/28 00:53:15;;;;;;;12.40;7.13;;;;;;;12.81;100.00;101669.53;1046123;28;20384;-87
2022/10/28 00:53:47;;;;;;;15.82;7.18;;;;;;;12.84;100.00;101668.28;1047217;28;20307;-88
2022/10/28 00:54:18;;;;;;;10.10;6.65;;;;;;;12.87;100.00;101659.81;1040694;28;20374;-87
2022/10/28 00:54:51;;;;;;;13.60;6.85;;;;;;;12.87;100.00;101663.31;1039799;28;20366;-88
2022/10/28 00:55:23;;;;;;;15.20;7.35;;;;;;;12.88;100.00;101662.31;1035575;28;20351;-87
2022/10/28 00:55:56;;;;;;;9.63;6.65;;;;;;;12.89;100.00;101663.13;1032576;28;20317;-87
2022/10/28 00:56:32;;;;;;;14.68;7.18;;;;;;;12.90;100.00;101672.81;1036707;28;20296;-88
2022/10/28 00:57:09;;;;;;;12.18;7.55;;;;;;;12.91;100.00;101663.75;1038592;28;20328;-87
2022/10/28 00:57:41;;;;;;;18.98;6.47;;;;;;;12.92;100.00;101662.72;1041904;28;20299;-88
2022/10/28 00:58:13;;;;;;;16.88;7.35;;;;;;;12.92;100.00;101666.22;1041492;28;20442;-87
2022/10/28 00:58:46;;;;;;;9.70;6.95;;;;;;;12.92;100.00;101662.72;1039298;28;20307;-88
2022/10/28 00:59:25;;;;;;;14.20;6.38;;;;;;;12.91;100.00;101661.91;1039357;28;20299;-88
2022/10/28 00:59:57;;;;;;;14.70;7.05;;;;;;;12.91;100.00;101664.56;1039242;28;20296;-87
2022/10/28 01:00:29;;;;;;;10.35;6.28;;;;;;;12.87;100.00;101662.50;1041695;28;20049;-88
2022/10/28 01:01:00;;;;;;;13.52;7.40;;;;;;;12.84;100.00;101657.56;1043296;28;20736;-88
2022/10/28 01:01:32;;;;;;;14.15;7.55;;;;;;;12.84;100.00;101665.59;1039935;28;20053;-87
2022/10/28 01:02:04;;;;;;;13.85;8.75;;;;;;;12.83;100.00;101662.09;1039971;28;20304;-88
2022/10/28 01:02:47;;;;;;;25.15;7.40;;;;;;;12.83;100.00;101656.75;1035286;28;20111;-87
2022/10/28 01:03:19;;;;;;;12.15;7.25;;;;;;;12.84;100.00;101661.06;1035707;28;20440;-87
2022/10/28 01:03:51;;;;;;;10.77;6.80;;;;;;;12.85;100.00;101659.22;1036223;28;20362;-88
2022/10/28 01:04:22;;;;;;;18.27;8.65;;;;;;;12.84;100.00;101660.25;1033663;28;20817;-88
2022/10/28 01:04:54;;;;;;;10.20;7.45;;;;;;;12.85;100.00;101653.88;1036172;28;20315;-87
2022/10/28 01:05:27;;;;;;;18.23;7.40;;;;;;;12.87;100.00;101657.16;1036119;28;20305;-88
2022/10/28 01:06:00;;;;;;;12.55;7.82;;;;;;;12.82;100.00;101651.63;1036462;28;20308;-88
2022/10/28 01:06:32;;;;;;;16.95;8.40;;;;;;;12.78;100.00;101656.56;1039492;28;20168;-88
2022/10/28 01:07:04;;;;;;;15.13;7.65;;;;;;;12.77;100.00;101652.25;1032607;28;20181;-88
2022/10/28 01:07:37;;;;;;;12.70;7.63;;;;;;;12.75;100.00;101659.69;1038093;28;20375;-88
2022/10/28 01:08:09;;;;;;;7.32;6.63;;;;;;;12.74;100.00;101649.19;1040172;28;20311;-88
2022/10/28 01:08:40;;;;;;;12.27;6.88;;;;;;;12.72;100.00;101654.75;1040887;28;20448;-88
2022/10/28 01:09:12;;;;;;;10.93;7.78;;;;;;;12.73;100.00;101650.22;1047828;28;20310;-88
2022/10/28 01:09:44;;;;;;;13.23;7.57;;;;;;;12.73;100.00;101651.03;1047072;28;20348;-88
2022/10/28 01:10:15;;;;;;;15.55;8.02;;;;;;;12.67;100.00;101650.03;1041640;28;20306;-88
2022/10/28 01:11:02;;;;;;;25.60;7.07;;;;;;;12.63;100.00;101651.50;1033901;28;20400;-88
2022/10/28 01:11:44;;;;;;;10.20;7.40;;;;;;;12.66;100.00;101644.91;1033520;28;20039;-88
2022/10/28 01:12:30;;;;;;;14.00;7.95;;;;;;;12.65;100.00;101649.44;1042220;28;20331;-88
2022/10/28 01:13:19;;;;;;;12.68;8.02;;;;;;;12.67;100.00;101644.69;1044000;28;20295;-88
2022/10/28 01:14:14;;;;;;;18.02;8.80;;;;;;;12.63;100.00;101646.16;1043550;28;20291;-87
2022/10/28 01:15:16;;;;;;;9.73;6.40;;;;;;;12.61;100.00;101647.38;1035392;28;20384;-88
2022/10/28 01:16:10;;;;;;;10.95;5.95;;;;;;;12.56;100.00;101645.31;1037037;28;20292;-88
2022/10/28 01:16:57;;;;;;;15.55;7.28;;;;;;;12.54;100.00;101639.38;1039628;28;20821;-88
2022/10/28 01:17:59;;;;;;;13.93;6.28;;;;;;;12.56;100.00;101644.50;1042295;28;20330;-88
2022/10/28 01:18:47;;;;;;;11.18;7.10;;;;;;;12.47;100.00;101641.25;1040263;28;20296;-88
2022/10/28 01:19:36;;;;;;;9.57;6.68;;;;;;;12.51;100.00;101641.63;1044392;28;20345;-88
2022/10/28 01:20:23;;;;;;;11.52;7.75;;;;;;;12.48;100.00;101642.88;1041410;28;20865;-88
2022/10/28 01:21:11;;;;;;;12.85;7.80;;;;;;;12.49;100.00;101641.84;1043618;28;20292;-88
2022/10/28 01:22:06;;;;;;;11.07;7.65;;;;;;;12.49;100.00;101636.50;1039493;28;20309;-88
2022/10/28 01:22:43;;;;;;;14.07;7.45;;;;;;;12.49;100.00;101635.69;1032237;28;20735;-88
2022/10/28 01:23:20;;;;;;;11.63;7.25;;;;;;;12.51;100.00;101642.47;1026846;28;20306;-88
2022/10/28 01:24:10;;;;;;;17.13;9.40;;;;;;;12.50;100.00;101640.00;1042146;28;20310;-88
2022/10/28 01:25:15;;;;;;;14.13;8.02;;;;;;;12.45;100.00;101637.97;1043591;28;20295;-89
2022/10/28 01:25:58;;;;;;;7.53;6.32;;;;;;;12.46;100.00;101638.78;1043945;28;20378;-88
2022/10/28 01:26:41;;;;;;;11.52;7.50;;;;;;;12.50;100.00;101640.81;1048096;28;20298;-88
2022/10/28 01:27:58;;;;;;;9.48;7.15;;;;;;;12.54;100.00;101631.34;1045847;28;20306;-88
2022/10/28 01:28:44;;;;;;;13.13;7.72;;;;;;;12.60;100.00;101630.53;1038159;28;20311;-88
2022/10/28 01:29:33;;;;;;;10.15;7.20;;;;;;;12.58;100.00;101629.91;1046030;28;20785;-88
2022/10/28 01:30:07;;;;;;;15.70;8.05;;;;;;;12.59;100.00;101628.88;1042738;28;20312;-88
2022/10/28 01:31:18;;;;;;;28.52;8.88;;;;;;;12.59;100.00;101623.53;1043131;28;20307;-88
2022/10/28 01:31:56;;;;;;;11.45;8.13;;;;;;;12.58;100.00;101629.91;1046094;28;20751;-87
2022/10/28 01:32:37;;;;;;;17.63;7.75;;;;;;;12.56;100.00;101628.47;1045855;28;20295;-88
2022/10/28 01:33:25;;;;;;;19.90;8.32;;;;;;;12.56;100.00;101621.28;1041453;28;20307;-89
2022/10/28 01:34:08;;;;;;;10.63;7.25;;;;;;;12.53;100.00;101616.34;1038182;28;20861;-88
2022/10/28 01:35:12;;;;;;;14.50;7.40;;;;;;;12.50;100.00;101614.09;1033962;28;20297;-88
2022/10/28 01:35:51;;;;;;;9.77;7.18;;;;;;;12.50;100.00;101611.44;1041408;28;20690;-87
2022/10/28 01:36:50;;;;;;;17.20;7.90;;;;;;;12.50;100.00;101616.78;1047662;28;20299;-88
2022/10/28 01:37:32;;;;;;;14.75;8.05;;;;;;;12.54;100.00;101609.16;1043066;28;20295;-89
2022/10/28 01:38:18;;;;;;;11.60;7.45;;;;;;;12.51;100.00;101615.75;1038900;28;20343;-88
2022/10/28 01:38:57;;;;;;;14.02;7.88;;;;;;;12.50;100.00;101614.09;1039246;28;20319;-88
2022/10/28 01:39:48;;;;;;;14.48;8.73;;;;;;;12.52;100.00;101614.72;1040061;28;20864;-86
2022/10/28 01:40:34;;;;;;;13.95;7.72;;;;;;;12.53;100.00;101612.84;1042116;28;20308;-88
2022/10/28 01:41:10;;;;;;;19.73;9.80;;;;;;;12.53;100.00;101608.31;1044036;28;20131;-88
2022/10/28 01:41:55;;;;;;;16.90;8.65;;;;;;;12.53;100.00;101603.00;1042692;28;20389;-89
2022/10/28 01:42:29;;;;;;;13.27;9.77;;;;;;;12.54;100.00;101612.66;1039644;28;20919;-88
2022/10/28 01:43:05;;;;;;;20.70;9.68;;;;;;;12.54;100.00;101609.16;1043189;28;20307;-89
2022/10/28 01:43:57;;;;;;;10.85;7.97;;;;;;;12.52;100.00;101605.88;1043236;28;20748;-88
2022/10/28 01:45:10;;;;;;;17.40;8.77;;;;;;;12.50;100.00;101603.41;1042537;28;20368;-88
2022/10/28 01:45:44;;;;;;;22.98;12.10;;;;;;;12.53;100.00;101597.63;1037736;28;20304;-88
2022/10/28 01:46:21;;;;;;;18.73;11.07;;;;;;;12.50;100.00;101603.41;1039214;28;20387;-88
2022/10/28 01:47:03;;;;;;;17.20;8.27;;;;;;;12.50;100.00;101598.06;1038263;28;20300;-88
2022/10/28 01:47:41;;;;;;;12.65;8.00;;;;;;;12.48;100.00;101600.13;1041138;28;20306;-88
2022/10/28 01:48:18;;;;;;;21.00;10.07;;;;;;;12.49;100.00;101601.78;1043637;28;20334;-89
2022/10/28 01:48:55;;;;;;;21.52;8.57;;;;;;;12.43;100.00;101597.28;1039354;28;20311;-89
2022/10/28 01:49:33;;;;;;;11.90;9.13;;;;;;;12.47;100.00;101593.13;1032925;28;20313;-89
2022/10/28 01:50:14;;;;;;;14.80;8.88;;;;;;;12.43;100.00;101599.94;1031832;28;20673;-88
2022/10/28 01:50:52;;;;;;;17.83;8.75;;;;;;;12.42;100.00;101595.63;1029974;28;20309;-87
2022/10/28 01:51:54;;;;;;;13.52;8.02;;;;;;;12.44;100.00;101606.94;1033108;28;20779;-89
2022/10/28 01:52:27;;;;;;;17.40;9.63;;;;;;;12.46;100.00;101596.84;1033598;28;20309;-89
2022/10/28 01:53:02;;;;;;;20.90;8.93;;;;;;;12.47;100.00;101597.66;1038119;28;20041;-88
2022/10/28 01:53:37;;;;;;;16.13;9.05;;;;;;;12.46;100.00;101596.84;1037052;28;20311;-88
2022/10/28 01:54:10;;;;;;;13.80;8.65;;;;;;;12.45;100.00;101595.22;1035869;28;20293;-86
2022/10/28 01:54:46;;;;;;;21.27;8.73;;;;;;;12.47;100.00;101592.31;1036968;28;20324;-89
2022/10/28 01:55:21;;;;;;;21.13;10.82;;;;;;;12.48;100.00;101589.44;1030646;28;20306;-88
2022/10/28 01:55:54;;;;;;;15.88;9.60;;;;;;;12.48;100.00;101600.13;1031536;28;20352;-88
2022/10/28 01:56:30;;;;;;;14.63;9.00;;;;;;;12.47;100.00;101603.84;1031108;28;20305;-88
2022/10/28 01:57:03;;;;;;;14.18;10.23;;;;;;;12.46;100.00;101599.53;1033198;28;20308;-88
2022/10/28 01:57:36;;;;;;;16.02;9.25;;;;;;;12.47;100.00;101601.16;1032395;28;20347;-88
2022/10/28 01:58:11;;;;;;;18.83;9.68;;;;;;;12.46;100.00;101607.53;1031526;28;20388;-89
2022/10/28 01:58:43;;;;;;;14.90;9.57;;;;;;;12.44;100.00;101604.25;1032356;28;20301;-88
2022/10/28 01:59:26;;;;;;;13.05;8.98;;;;;;;12.42;100.00;101600.97;1039993;28;20304;-89
2022/10/28 01:59:58;;;;;;;15.30;9.07;;;;;;;12.39;100.00;101601.41;1042072;28;20041;-88
2022/10/28 02:00:31;;;;;;;17.67;9.35;;;;;;;12.39;100.00;101606.75;1040268;28;20299;-88
2022/10/28 02:01:05;;;;;;;11.50;9.00;;;;;;;12.36;100.00;101601.81;1036861;28;20451;-89
2022/10/28 02:01:37;;;;;;;27.30;9.40;;;;;;;12.34;100.00;101603.88;1036633;28;20695;-89
2022/10/28 02:02:09;;;;;;;27.02;11.00;;;;;;;12.33;100.00;101602.25;1033868;28;20309;-88
2022/10/28 02:02:41;;;;;;;18.20;9.13;;;;;;;12.31;100.00;101606.94;1036857;28;20370;-88
2022/10/28 02:03:15;;;;;;;14.02;8.55;;;;;;;12.28;100.00;101602.03;1040400;28;20311;-88
2022/10/28 02:03:46;;;;;;;18.33;8.45;;;;;;;12.28;100.00;101599.34;1043182;28;20306;-87
2022/10/28 02:04:18;;;;;;;11.40;9.38;;;;;;;12.28;100.00;101599.34;1039293;28;20049;-89
2022/10/28 02:04:50;;;;;;;11.00;8.68;;;;;;;12.27;100.00;101597.72;1040066;28;20319;-88
2022/10/28 02:05:37;;;;;;;24.58;9.50;;;;;;;12.30;100.00;101600.78;1040008;28;20321;-88
2022/10/28 02:06:16;;;;;;;16.20;9.02;;;;;;;12.33;100.00;101591.56;1043280;28;20773;-88
2022/10/28 02:06:52;;;;;;;18.77;9.80;;;;;;;12.34;100.00;101596.69;1047667;28;20060;-89
2022/10/28 02:07:24;;;;;;;12.68;8.48;;;;;;;12.31;100.00;101598.94;1044923;28;20331;-88
2022/10/28 02:07:58;;;;;;;14.75;8.68;;;;;;;12.29;100.00;101595.66;1043595;28;20290;-89
2022/10/28 02:08:55;;;;;;;16.52;10.75;;;;;;;12.22;100.00;101594.84;1043769;28;20344;-88
2022/10/28 02:09:33;;;;;;;8.70;6.43;;;;;;;12.19;100.00;101590.75;1043020;28;20302;-88
2022/10/28 02:10:08;;;;;;;20.13;8.25;;;;;;;12.20;100.00;101591.56;1042693;28;20303;-89
2022/10/28 02:10:50;;;;;;;19.08;9.23;;;;;;;12.20;100.00;101591.56;1039438;28;20369;-88
2022/10/28 02:11:28;;;;;;;26.15;9.93;;;;;;;12.18;100.00;101589.09;1037977;28;20344;-88
2022/10/28 02:12:15;;;;;;;13.05;8.40;;;;;;;12.19;100.00;101595.25;1037055;28;20288;-88
2022/10/28 02:12:50;;;;;;;16.25;7.65;;;;;;;12.20;100.00;101596.91;1043211;28;20652;-88
2022/10/28 02:13:25;;;;;;;13.60;7.93;;;;;;;12.22;100.00;101600.19;1042825;28;20764;-89
2022/10/28 02:14:21;;;;;;;15.55;8.70;;;;;;;12.26;100.00;101604.06;1046272;28;20313;-87
2022/10/28 02:15:29;;;;;;;14.88;9.93;;;;;;;12.21;100.00;101595.88;1047395;28;20775;-88
2022/10/28 02:16:14;;;;;;;9.93;7.35;;;;;;;12.21;100.00;101599.38;1043749;28;20319;-89
2022/10/28 02:16:50;;;;;;;12.68;7.60;;;;;;;12.19;100.00;101596.09;1038129;28;20413;-88
2022/10/28 02:17:46;;;;;;;13.60;7.53;;;;;;;12.16;100.00;101601.03;1037617;28;20834;-88
2022/10/28 02:18:42;;;;;;;13.48;7.72;;;;;;;12.13;100.00;101596.09;1036661;28;20311;-88
2022/10/28 02:19:41;;;;;;;13.90;8.25;;;;;;;12.13;100.00;101596.09;1042115;28;20303;-88
2022/10/28 02:20:34;;;;;;;20.80;8.30;;;;;;;12.13;100.00;101596.09;1039255;28;20895;-88
2022/10/28 02:21:27;;;;;;;14.18;7.85;;;;;;;12.15;100.00;101596.72;1036483;28;20315;-88
2022/10/28 02:22:31;;;;;;;12.73;7.68;;;;;;;12.15;100.00;101599.38;1035163;28;20332;-88
2022/10/28 02:23:32;;;;;;;11.70;6.82;;;;;;;12.13;100.00;101601.44;1036525;28;20315;-88
2022/10/28 02:24:11;;;;;;;9.63;7.65;;;;;;;12.12;100.00;101594.47;1026906;28;20775;-88
2022/10/28 02:24:54;;;;;;;13.23;7.53;;;;;;;12.07;100.00;101592.41;1029418;28;20851;-88
2022/10/28 02:25:33;;;;;;;13.07;7.47;;;;;;;12.07;100.00;101595.09;1037997;28;20300;-88
2022/10/28 02:26:14;;;;;;;18.88;7.78;;;;;;;12.05;100.00;101589.97;1035064;28;20304;-88
2022/10/28 02:26:52;;;;;;;21.25;9.95;;;;;;;12.10;100.00;101586.66;1039287;28;20292;-87
2022/10/28 02:27:38;;;;;;;11.75;8.77;;;;;;;12.11;100.00;101588.31;1038664;28;20562;-88
2022/10/28 02:28:15;;;;;;;16.50;9.38;;;;;;;12.15;100.00;101589.53;1036897;28;20639;-88
2022/10/28 02:28:59;;;;;;;19.00;9.65;;;;;;;12.09;100.00;101594.88;1041034;28;20319;-88
2022/10/28 02:29:40;;;;;;;14.82;8.65;;;;;;;12.05;100.00;101595.31;1040645;28;20298;-88
2022/10/28 02:30:20;;;;;;;16.83;9.38;;;;;;;12.05;100.00;101591.78;1037744;28;20496;-88
2022/10/28 02:30:57;;;;;;;13.35;8.85;;;;;;;12.02;100.00;101593.00;1038219;28;20045;-87
2022/10/28 02:31:32;;;;;;;11.60;7.20;;;;;;;12.00;100.00;101595.06;1040195;28;20092;-88
2022/10/28 02:32:07;;;;;;;14.82;7.93;;;;;;;11.95;100.00;101594.88;1038931;28;20324;-88
2022/10/28 02:32:43;;;;;;;13.13;8.63;;;;;;;11.94;100.00;101600.44;1033635;28;20293;-88
2022/10/28 02:33:21;;;;;;;18.42;8.68;;;;;;;11.93;100.00;101599.59;1037420;28;20829;-87
2022/10/28 02:33:57;;;;;;;24.45;10.27;;;;;;;11.94;100.00;101598.56;1042127;28;20292;-88
2022/10/28 02:34:32;;;;;;;13.93;8.38;;;;;;;11.94;100.00;101593.25;1035951;28;20771;-88
2022/10/28 02:35:09;;;;;;;12.15;8.07;;;;;;;11.94;100.00;101592.41;1035974;28;20289;-88
2022/10/28 02:35:47;;;;;;;22.23;9.95;;;;;;;11.95;100.00;101594.06;1029085;28;20366;-89
2022/10/28 02:36:21;;;;;;;22.27;9.85;;;;;;;11.92;100.00;101589.13;1033569;28;20313;-88
2022/10/28 02:36:54;;;;;;;19.67;8.60;;;;;;;11.92;100.00;101595.28;1034972;28;20419;-88
2022/10/28 02:37:29;;;;;;;16.92;9.52;;;;;;;11.93;100.00;101596.13;1034391;28;20305;-88
2022/10/28 02:38:04;;;;;;;15.20;9.55;;;;;;;12.00;100.00;101587.06;1036158;28;20328;-88
2022/10/28 02:38:41;;;;;;;20.70;9.32;;;;;;;12.03;100.00;101597.31;1032958;28;20293;-88
2022/10/28 02:39:13;;;;;;;14.88;9.13;;;;;;;12.05;100.00;101595.31;1039860;28;20297;-88
2022/10/28 02:39:48;;;;;;;13.75;8.18;;;;;;;12.02;100.00;101592.19;1037291;28;20655;-89
2022/10/28 02:40:23;;;;;;;23.67;8.40;;;;;;;12.01;100.00;101593.22;1035781;28;20392;-88
2022/10/28 02:40:59;;;;;;;11.68;9.07;;;;;;;12.05;100.00;101589.97;1039645;28;20304;-89
2022/10/28 02:42:04;;;;;;;13.40;9.00;;;;;;;12.09;100.00;101586.88;1037735;28;20295;-88
2022/10/28 02:42:37;;;;;;;17.40;10.85;;;;;;;12.11;100.00;101587.47;1036681;28;20367;-88
2022/10/28 02:43:12;;;;;;;18.08;9.07;;;;;;;12.11;100.00;101588.31;1035979;28;20343;-89
2022/10/28 02:43:44;;;;;;;16.35;8.90;;;;;;;12.09;100.00;101594.88;1035188;28;20364;-89
2022/10/28 02:44:20;;;;;;;20.63;8.80;;;;;;;12.05;100.00;101595.31;1034901;28;20294;-89
2022/10/28 02:44:59;;;;;;;19.20;9.75;;;;;;;12.06;100.00;101586.25;1038786;28;20300;-89
2022/10/28 02:45:34;;;;;;;11.45;8.18;;;;;;;12.04;100.00;101588.28;1037352;28;20810;-89
2022/10/28 02:46:07;;;;;;;11.25;8.25;;;;;;;12.01;100.00;101588.69;1033998;28;20796;-89
2022/10/28 02:46:42;;;;;;;13.82;9.07;;;;;;;11.99;100.00;101580.09;1032591;28;20329;-88
2022/10/28 02:47:18;;;;;;;17.10;9.48;;;;;;;12.00;100.00;101581.72;1035024;28;20296;-89
2022/10/28 02:48:25;;;;;;;16.48;9.25;;;;;;;11.96;100.00;101587.69;1034076;28;20389;-88
2022/10/28 02:49:01;;;;;;;19.08;8.60;;;;;;;11.95;100.00;101578.03;1038135;28;20293;-88
2022/10/28 02:49:34;;;;;;;17.73;9.27;;;;;;;11.94;100.00;101582.56;1043655;28;20334;-88
2022/10/28 02:50:09;;;;;;;13.77;8.45;;;;;;;11.95;100.00;101578.84;1045458;28;20689;-89
2022/10/28 02:50:45;;;;;;;22.88;8.70;;;;;;;11.94;100.00;101581.75;1042964;28;20366;-88
2022/10/28 02:51:19;;;;;;;10.93;8.63;;;;;;;11.93;100.00;101586.25;1044536;28;20354;-88
2022/10/28 02:51:54;;;;;;;15.50;8.82;;;;;;;11.91;100.00;101579.47;1039767;28;20292;-88
2022/10/28 02:52:28;;;;;;;13.32;8.32;;;;;;;11.91;100.00;101571.47;1039961;28;20640;-88